sensor_id;sensor_type;location;lat;lon;timestamp;pressure;altitude;pressure_sealevel;temperature;humidity
47080;BME280;33067;49.296;14.470;2023-09-07T00:00:27;97618.77;;;20.07;40.78
47080;BME280;33067;49.296;14.470;2023-09-07T00:02:52;97618.66;;;20.08;40.62
47080;BME280;33067;49.296;14.470;2023-09-07T00:05:17;97618.24;;;20.01;40.94
47080;BME280;33067;49.296;14.470;2023-09-07T00:07:42;97619.11;;;19.94;41.01
47080;BME280;33067;49.296;14.470;2023-09-07T00:10:09;97617.28;;;19.46;41.22
47080;BME280;33067;49.296;14.470;2023-09-07T00:12:34;97611.76;;;19.39;41.50
47080;BME280;33067;49.296;14.470;2023-09-07T00:15:03;97611.07;;;19.33;41.66
47080;BME280;33067;49.296;14.470;2023-09-07T00:17:25;97612.98;;;19.49;41.58
47080;BME280;33067;49.296;14.470;2023-09-07T00:19:51;97613.35;;;19.20;42.00
47080;BME280;33067;49.296;14.470;2023-09-07T00:22:17;97616.37;;;19.43;41.61
47080;BME280;33067;49.296;14.470;2023-09-07T00:24:42;97618.23;;;19.66;41.65
47080;BME280;33067;49.296;14.470;2023-09-07T00:27:08;97618.75;;;19.26;41.88
47080;BME280;33067;49.296;14.470;2023-09-07T00:29:33;97617.37;;;19.38;41.59
47080;BME280;33067;49.296;14.470;2023-09-07T00:31:58;97617.27;;;19.20;41.55
47080;BME280;33067;49.296;14.470;2023-09-07T00:34:24;97617.53;;;19.37;41.44
47080;BME280;33067;49.296;14.470;2023-09-07T00:36:50;97615.59;;;19.26;41.58
47080;BME280;33067;49.296;14.470;2023-09-07T00:39:15;97615.79;;;19.35;41.40
47080;BME280;33067;49.296;14.470;2023-09-07T00:41:41;97615.11;;;19.26;41.75
47080;BME280;33067;49.296;14.470;2023-09-07T00:44:06;97615.71;;;19.19;41.93
47080;BME280;33067;49.296;14.470;2023-09-07T00:46:32;97614.81;;;19.19;41.94
47080;BME280;33067;49.296;14.470;2023-09-07T00:48:57;97613.92;;;19.31;41.60
47080;BME280;33067;49.296;14.470;2023-09-07T00:51:23;97615.79;;;19.14;41.81
47080;BME280;33067;49.296;14.470;2023-09-07T00:53:48;97616.25;;;19.44;41.63
47080;BME280;33067;49.296;14.470;2023-09-07T00:56:14;97614.77;;;19.09;41.63
47080;BME280;33067;49.296;14.470;2023-09-07T00:58:40;97616.29;;;18.85;42.10
47080;BME280;33067;49.296;14.470;2023-09-07T01:01:05;97616.78;;;18.58;42.38
47080;BME280;33067;49.296;14.470;2023-09-07T01:03:31;97619.62;;;18.74;42.45
47080;BME280;33067;49.296;14.470;2023-09-07T01:06:02;97612.60;;;18.98;41.93
47080;BME280;33067;49.296;14.470;2023-09-07T01:08:25;97612.41;;;18.98;42.02
47080;BME280;33067;49.296;14.470;2023-09-07T01:10:48;97610.98;;;18.99;41.84
47080;BME280;33067;49.296;14.470;2023-09-07T01:13:13;97613.24;;;18.74;42.37
47080;BME280;33067;49.296;14.470;2023-09-07T01:15:38;97608.73;;;19.08;42.03
47080;BME280;33067;49.296;14.470;2023-09-07T01:18:04;97611.72;;;18.81;42.03
47080;BME280;33067;49.296;14.470;2023-09-07T01:20:30;97615.12;;;18.65;42.29
47080;BME280;33067;49.296;14.470;2023-09-07T01:22:55;97613.71;;;18.70;41.92
47080;BME280;33067;49.296;14.470;2023-09-07T01:25:20;97611.82;;;18.84;41.96
47080;BME280;33067;49.296;14.470;2023-09-07T01:27:46;97611.75;;;18.65;41.77
47080;BME280;33067;49.296;14.470;2023-09-07T01:30:11;97611.07;;;18.32;42.19
47080;BME280;33067;49.296;14.470;2023-09-07T01:32:36;97606.82;;;18.21;42.20
47080;BME280;33067;49.296;14.470;2023-09-07T01:35:05;97605.39;;;18.45;42.04
47080;BME280;33067;49.296;14.470;2023-09-07T01:37:27;97604.32;;;18.48;42.03
47080;BME280;33067;49.296;14.470;2023-09-07T01:39:53;97604.19;;;18.23;42.33
47080;BME280;33067;49.296;14.470;2023-09-07T01:42:19;97602.88;;;18.20;42.48
47080;BME280;33067;49.296;14.470;2023-09-07T01:44:44;97603.77;;;18.63;42.53
47080;BME280;33067;49.296;14.470;2023-09-07T01:47:10;97602.87;;;18.66;42.47
47080;BME280;33067;49.296;14.470;2023-09-07T01:49:35;97601.92;;;18.29;42.55
47080;BME280;33067;49.296;14.470;2023-09-07T01:52:02;97601.67;;;18.67;42.25
47080;BME280;33067;49.296;14.470;2023-09-07T01:54:26;97602.29;;;18.30;42.53
47080;BME280;33067;49.296;14.470;2023-09-07T01:56:51;97604.19;;;18.08;42.40
47080;BME280;33067;49.296;14.470;2023-09-07T01:59:16;97605.27;;;18.53;42.42
47080;BME280;33067;49.296;14.470;2023-09-07T02:01:42;97607.14;;;18.29;41.91
47080;BME280;33067;49.296;14.470;2023-09-07T02:04:08;97602.40;;;18.09;42.02
47080;BME280;33067;49.296;14.470;2023-09-07T02:06:33;97603.42;;;18.22;42.04
47080;BME280;33067;49.296;14.470;2023-09-07T02:08:58;97600.56;;;18.26;41.97
47080;BME280;33067;49.296;14.470;2023-09-07T02:13:01;97606.44;;;18.90;41.26
47080;BME280;33067;49.296;14.470;2023-09-07T02:15:27;97604.76;;;18.57;41.59
47080;BME280;33067;49.296;14.470;2023-09-07T02:17:53;97605.34;;;17.98;42.28
47080;BME280;33067;49.296;14.470;2023-09-07T02:20:18;97602.93;;;17.92;42.29
47080;BME280;33067;49.296;14.470;2023-09-07T02:22:44;97603.55;;;18.06;42.56
47080;BME280;33067;49.296;14.470;2023-09-07T02:25:09;97600.79;;;18.15;42.38
47080;BME280;33067;49.296;14.470;2023-09-07T02:27:35;97600.63;;;18.20;42.22
47080;BME280;33067;49.296;14.470;2023-09-07T02:30:00;97600.38;;;17.99;42.12
47080;BME280;33067;49.296;14.470;2023-09-07T02:32:25;97605.58;;;17.68;42.54
47080;BME280;33067;49.296;14.470;2023-09-07T02:34:50;97603.42;;;17.57;42.56
47080;BME280;33067;49.296;14.470;2023-09-07T02:37:15;97601.19;;;18.07;42.00
47080;BME280;33067;49.296;14.470;2023-09-07T02:39:41;97602.78;;;17.96;41.98
47080;BME280;33067;49.296;14.470;2023-09-07T02:42:07;97603.52;;;17.87;42.07
47080;BME280;33067;49.296;14.470;2023-09-07T02:44:32;97603.31;;;17.66;42.36
47080;BME280;33067;49.296;14.470;2023-09-07T02:46:58;97603.44;;;17.60;42.35
47080;BME280;33067;49.296;14.470;2023-09-07T02:49:23;97603.01;;;17.29;42.33
47080;BME280;33067;49.296;14.470;2023-09-07T02:51:48;97603.95;;;17.71;42.39
47080;BME280;33067;49.296;14.470;2023-09-07T02:54:13;97604.39;;;17.45;42.30
47080;BME280;33067;49.296;14.470;2023-09-07T02:56:38;97603.09;;;17.48;42.27
47080;BME280;33067;49.296;14.470;2023-09-07T02:59:03;97604.60;;;17.58;42.36
47080;BME280;33067;49.296;14.470;2023-09-07T03:01:29;97605.55;;;17.41;42.16
47080;BME280;33067;49.296;14.470;2023-09-07T03:03:54;97610.37;;;17.39;42.26
47080;BME280;33067;49.296;14.470;2023-09-07T03:06:19;97611.64;;;17.79;41.89
47080;BME280;33067;49.296;14.470;2023-09-07T03:08:45;97613.75;;;17.68;41.57
47080;BME280;33067;49.296;14.470;2023-09-07T03:11:11;97612.46;;;17.55;41.99
47080;BME280;33067;49.296;14.470;2023-09-07T03:13:36;97612.08;;;17.46;41.97
47080;BME280;33067;49.296;14.470;2023-09-07T03:16:02;97612.86;;;17.26;42.23
47080;BME280;33067;49.296;14.470;2023-09-07T03:18:26;97615.30;;;17.39;42.18
47080;BME280;33067;49.296;14.470;2023-09-07T03:20:55;97615.98;;;17.20;42.57
47080;BME280;33067;49.296;14.470;2023-09-07T03:25:42;97617.77;;;17.27;42.08
47080;BME280;33067;49.296;14.470;2023-09-07T03:28:07;97617.42;;;17.17;42.10
47080;BME280;33067;49.296;14.470;2023-09-07T03:30:33;97612.77;;;16.63;43.15
47080;BME280;33067;49.296;14.470;2023-09-07T03:32:58;97614.67;;;16.88;42.64
47080;BME280;33067;49.296;14.470;2023-09-07T03:35:23;97612.85;;;16.63;42.71
47080;BME280;33067;49.296;14.470;2023-09-07T03:37:49;97615.70;;;17.11;42.17
47080;BME280;33067;49.296;14.470;2023-09-07T03:40:14;97612.98;;;16.65;42.92
47080;BME280;33067;49.296;14.470;2023-09-07T03:42:39;97609.68;;;16.90;42.62
47080;BME280;33067;49.296;14.470;2023-09-07T03:45:05;97610.06;;;17.03;42.36
47080;BME280;33067;49.296;14.470;2023-09-07T03:47:30;97608.07;;;17.13;42.29
47080;BME280;33067;49.296;14.470;2023-09-07T03:49:57;97608.51;;;17.06;42.39
47080;BME280;33067;49.296;14.470;2023-09-07T03:52:22;97610.45;;;16.94;42.20
47080;BME280;33067;49.296;14.470;2023-09-07T03:54:54;97612.58;;;17.25;42.05
47080;BME280;33067;49.296;14.470;2023-09-07T03:57:13;97614.23;;;17.25;42.07
47080;BME280;33067;49.296;14.470;2023-09-07T03:59:39;97616.25;;;17.11;42.17
47080;BME280;33067;49.296;14.470;2023-09-07T04:02:04;97615.65;;;16.87;42.07
47080;BME280;33067;49.296;14.470;2023-09-07T04:04:29;97616.06;;;17.00;42.22
47080;BME280;33067;49.296;14.470;2023-09-07T04:06:55;97617.66;;;16.86;42.26
47080;BME280;33067;49.296;14.470;2023-09-07T04:09:20;97617.47;;;16.58;42.25
47080;BME280;33067;49.296;14.470;2023-09-07T04:11:46;97617.05;;;16.74;41.93
47080;BME280;33067;49.296;14.470;2023-09-07T04:16:37;97615.56;;;16.90;41.62
47080;BME280;33067;49.296;14.470;2023-09-07T04:19:01;97612.63;;;17.12;41.48
47080;BME280;33067;49.296;14.470;2023-09-07T04:21:27;97612.11;;;17.06;41.44
47080;BME280;33067;49.296;14.470;2023-09-07T04:23:52;97613.83;;;16.96;41.49
47080;BME280;33067;49.296;14.470;2023-09-07T04:26:19;97617.25;;;17.00;41.40
47080;BME280;33067;49.296;14.470;2023-09-07T04:28:45;97616.28;;;16.81;41.56
47080;BME280;33067;49.296;14.470;2023-09-07T04:31:10;97618.09;;;16.42;42.15
47080;BME280;33067;49.296;14.470;2023-09-07T04:33:35;97619.47;;;16.50;42.08
47080;BME280;33067;49.296;14.470;2023-09-07T04:36:07;97619.53;;;16.67;42.18
47080;BME280;33067;49.296;14.470;2023-09-07T04:38:26;97616.17;;;16.53;41.97
47080;BME280;33067;49.296;14.470;2023-09-07T04:40:51;97613.51;;;16.82;41.43
47080;BME280;33067;49.296;14.470;2023-09-07T04:43:16;97612.64;;;16.80;41.52
47080;BME280;33067;49.296;14.470;2023-09-07T04:45:52;97613.37;;;16.36;42.45
47080;BME280;33067;49.296;14.470;2023-09-07T04:48:08;97613.75;;;16.48;42.00
47080;BME280;33067;49.296;14.470;2023-09-07T04:50:34;97617.04;;;16.18;42.66
47080;BME280;33067;49.296;14.470;2023-09-07T04:52:59;97617.49;;;16.41;42.35
47080;BME280;33067;49.296;14.470;2023-09-07T04:55:25;97620.18;;;16.49;42.11
47080;BME280;33067;49.296;14.470;2023-09-07T04:57:50;97621.54;;;16.66;42.23
47080;BME280;33067;49.296;14.470;2023-09-07T05:00:16;97625.13;;;16.46;42.29
47080;BME280;33067;49.296;14.470;2023-09-07T05:02:41;97626.23;;;16.52;42.33
47080;BME280;33067;49.296;14.470;2023-09-07T05:05:08;97624.31;;;15.76;42.21
47080;BME280;33067;49.296;14.470;2023-09-07T05:07:32;97627.50;;;17.12;41.19
47080;BME280;33067;49.296;14.470;2023-09-07T05:09:57;97623.84;;;17.21;41.63
47080;BME280;33067;49.296;14.470;2023-09-07T05:12:23;97627.40;;;17.26;41.38
47080;BME280;33067;49.296;14.470;2023-09-07T05:14:49;97627.02;;;16.97;41.91
47080;BME280;33067;49.296;14.470;2023-09-07T05:17:14;97630.19;;;17.11;41.77
47080;BME280;33067;49.296;14.470;2023-09-07T05:19:40;97635.85;;;17.10;41.88
47080;BME280;33067;49.296;14.470;2023-09-07T05:22:12;97638.09;;;16.81;42.33
47080;BME280;33067;49.296;14.470;2023-09-07T05:24:31;97641.55;;;16.95;42.01
47080;BME280;33067;49.296;14.470;2023-09-07T05:26:56;97640.21;;;17.59;41.43
47080;BME280;33067;49.296;14.470;2023-09-07T05:29:22;97641.74;;;17.88;40.90
47080;BME280;33067;49.296;14.470;2023-09-07T05:31:47;97642.69;;;17.73;40.76
47080;BME280;33067;49.296;14.470;2023-09-07T05:34:17;97641.96;;;17.92;40.09
47080;BME280;33067;49.296;14.470;2023-09-07T05:36:38;97645.38;;;18.36;39.82
47080;BME280;33067;49.296;14.470;2023-09-07T05:39:03;97648.41;;;18.10;40.19
47080;BME280;33067;49.296;14.470;2023-09-07T05:41:28;97645.46;;;18.83;39.46
47080;BME280;33067;49.296;14.470;2023-09-07T05:43:54;97647.39;;;18.36;39.46
47080;BME280;33067;49.296;14.470;2023-09-07T05:46:19;97648.79;;;18.87;39.46
47080;BME280;33067;49.296;14.470;2023-09-07T05:48:45;97648.90;;;18.58;39.50
47080;BME280;33067;49.296;14.470;2023-09-07T05:51:10;97650.36;;;18.87;39.15
47080;BME280;33067;49.296;14.470;2023-09-07T05:53:35;97646.83;;;19.12;39.33
47080;BME280;33067;49.296;14.470;2023-09-07T05:56:01;97644.08;;;19.00;39.15
47080;BME280;33067;49.296;14.470;2023-09-07T05:58:26;97645.03;;;19.57;38.34
47080;BME280;33067;49.296;14.470;2023-09-07T06:00:51;97646.28;;;19.71;38.48
47080;BME280;33067;49.296;14.470;2023-09-07T06:03:16;97646.27;;;19.98;37.87
47080;BME280;33067;49.296;14.470;2023-09-07T06:05:41;97641.32;;;20.00;38.01
47080;BME280;33067;49.296;14.470;2023-09-07T06:08:07;97642.26;;;20.36;37.72
47080;BME280;33067;49.296;14.470;2023-09-07T06:10:32;97638.48;;;20.42;37.62
47080;BME280;33067;49.296;14.470;2023-09-07T06:12:58;97636.13;;;20.61;37.11
47080;BME280;33067;49.296;14.470;2023-09-07T06:15:24;97636.68;;;20.99;36.91
47080;BME280;33067;49.296;14.470;2023-09-07T06:17:48;97634.82;;;21.77;36.41
47080;BME280;33067;49.296;14.470;2023-09-07T06:20:14;97637.09;;;21.71;36.08
47080;BME280;33067;49.296;14.470;2023-09-07T06:22:39;97637.89;;;21.78;36.35
47080;BME280;33067;49.296;14.470;2023-09-07T06:25:04;97638.20;;;21.97;36.05
47080;BME280;33067;49.296;14.470;2023-09-07T06:27:30;97641.13;;;22.33;35.65
47080;BME280;33067;49.296;14.470;2023-09-07T06:29:56;97644.97;;;22.27;35.54
47080;BME280;33067;49.296;14.470;2023-09-07T06:32:20;97646.55;;;22.68;35.09
47080;BME280;33067;49.296;14.470;2023-09-07T06:34:45;97649.75;;;22.47;35.07
47080;BME280;33067;49.296;14.470;2023-09-07T06:37:12;97648.14;;;22.61;35.09
47080;BME280;33067;49.296;14.470;2023-09-07T06:39:37;97648.68;;;22.60;35.11
47080;BME280;33067;49.296;14.470;2023-09-07T06:42:03;97644.17;;;23.01;34.50
47080;BME280;33067;49.296;14.470;2023-09-07T06:44:28;97644.82;;;23.30;34.10
47080;BME280;33067;49.296;14.470;2023-09-07T06:46:53;97644.46;;;23.50;34.13
47080;BME280;33067;49.296;14.470;2023-09-07T06:49:19;97636.17;;;23.76;33.52
47080;BME280;33067;49.296;14.470;2023-09-07T06:51:44;97637.92;;;23.66;33.57
47080;BME280;33067;49.296;14.470;2023-09-07T06:54:11;97641.05;;;23.21;34.22
47080;BME280;33067;49.296;14.470;2023-09-07T06:56:36;97637.79;;;23.51;34.06
47080;BME280;33067;49.296;14.470;2023-09-07T06:59:01;97636.02;;;23.75;33.84
47080;BME280;33067;49.296;14.470;2023-09-07T07:01:28;97640.24;;;23.67;34.12
47080;BME280;33067;49.296;14.470;2023-09-07T07:03:53;97641.49;;;24.26;33.84
47080;BME280;33067;49.296;14.470;2023-09-07T07:06:18;97643.26;;;24.19;33.49
47080;BME280;33067;49.296;14.470;2023-09-07T07:08:44;97645.22;;;24.50;33.23
47080;BME280;33067;49.296;14.470;2023-09-07T07:11:10;97640.89;;;25.19;32.63
47080;BME280;33067;49.296;14.470;2023-09-07T07:13:35;97643.27;;;25.46;31.88
47080;BME280;33067;49.296;14.470;2023-09-07T07:16:01;97644.19;;;25.26;32.10
47080;BME280;33067;49.296;14.470;2023-09-07T07:18:26;97643.07;;;25.37;32.16
47080;BME280;33067;49.296;14.470;2023-09-07T07:20:52;97645.16;;;25.38;32.50
47080;BME280;33067;49.296;14.470;2023-09-07T07:23:18;97645.80;;;25.58;32.09
47080;BME280;33067;49.296;14.470;2023-09-07T07:25:44;97646.70;;;26.11;31.32
47080;BME280;33067;49.296;14.470;2023-09-07T07:28:09;97649.35;;;25.70;31.31
47080;BME280;33067;49.296;14.470;2023-09-07T07:30:37;97653.78;;;25.76;31.78
47080;BME280;33067;49.296;14.470;2023-09-07T07:33:00;97651.83;;;26.03;31.60
47080;BME280;33067;49.296;14.470;2023-09-07T07:35:26;97652.61;;;26.11;31.71
47080;BME280;33067;49.296;14.470;2023-09-07T07:37:52;97651.06;;;26.56;31.34
47080;BME280;33067;49.296;14.470;2023-09-07T07:40:18;97651.51;;;26.64;31.15
47080;BME280;33067;49.296;14.470;2023-09-07T07:42:43;97656.65;;;26.92;30.65
47080;BME280;33067;49.296;14.470;2023-09-07T07:45:12;97653.38;;;26.92;30.65
47080;BME280;33067;49.296;14.470;2023-09-07T07:47:35;97651.62;;;27.16;30.19
47080;BME280;33067;49.296;14.470;2023-09-07T07:50:00;97651.44;;;27.16;30.27
47080;BME280;33067;49.296;14.470;2023-09-07T07:52:26;97650.21;;;27.52;29.47
47080;BME280;33067;49.296;14.470;2023-09-07T07:54:52;97652.92;;;27.86;29.62
47080;BME280;33067;49.296;14.470;2023-09-07T07:57:17;97653.79;;;27.64;29.42
47080;BME280;33067;49.296;14.470;2023-09-07T07:59:43;97656.28;;;27.76;29.99
47080;BME280;33067;49.296;14.470;2023-09-07T08:02:08;97653.48;;;27.89;29.25
47080;BME280;33067;49.296;14.470;2023-09-07T08:04:35;97652.62;;;27.62;29.22
47080;BME280;33067;49.296;14.470;2023-09-07T08:07:01;97652.22;;;27.86;29.56
47080;BME280;33067;49.296;14.470;2023-09-07T08:09:25;97652.11;;;27.44;29.62
47080;BME280;33067;49.296;14.470;2023-09-07T08:11:51;97650.66;;;27.68;29.57
47080;BME280;33067;49.296;14.470;2023-09-07T08:14:16;97646.68;;;27.72;29.39
47080;BME280;33067;49.296;14.470;2023-09-07T08:16:42;97648.00;;;27.77;29.24
47080;BME280;33067;49.296;14.470;2023-09-07T08:19:07;97648.22;;;26.94;29.09
47080;BME280;33067;49.296;14.470;2023-09-07T08:21:33;97640.56;;;26.30;29.91
47080;BME280;33067;49.296;14.470;2023-09-07T08:23:59;97641.09;;;26.24;30.88
47080;BME280;33067;49.296;14.470;2023-09-07T08:26:26;97638.12;;;26.08;31.24
47080;BME280;33067;49.296;14.470;2023-09-07T08:28:50;97635.16;;;25.39;30.57
47080;BME280;33067;49.296;14.470;2023-09-07T08:31:15;97635.46;;;25.39;30.73
47080;BME280;33067;49.296;14.470;2023-09-07T08:33:41;97631.76;;;26.13;30.64
47080;BME280;33067;49.296;14.470;2023-09-07T08:36:07;97644.51;;;25.05;31.32
47080;BME280;33067;49.296;14.470;2023-09-07T08:38:32;97635.18;;;25.33;31.56
47080;BME280;33067;49.296;14.470;2023-09-07T08:41:01;97628.95;;;25.43;30.60
47080;BME280;33067;49.296;14.470;2023-09-07T08:43:25;97632.94;;;25.27;31.84
47080;BME280;33067;49.296;14.470;2023-09-07T08:45:54;97627.09;;;25.47;31.06
47080;BME280;33067;49.296;14.470;2023-09-07T08:48:17;97633.63;;;24.21;32.62
47080;BME280;33067;49.296;14.470;2023-09-07T08:50:41;97631.25;;;23.22;33.23
47080;BME280;33067;49.296;14.470;2023-09-07T08:53:07;97631.06;;;24.41;32.75
47080;BME280;33067;49.296;14.470;2023-09-07T08:55:33;97636.60;;;23.97;33.07
47080;BME280;33067;49.296;14.470;2023-09-07T08:57:59;97633.67;;;24.01;32.58
47080;BME280;33067;49.296;14.470;2023-09-07T09:00:25;97634.78;;;24.60;32.88
47080;BME280;33067;49.296;14.470;2023-09-07T09:02:50;97640.93;;;24.54;32.14
47080;BME280;33067;49.296;14.470;2023-09-07T09:05:20;97633.36;;;24.43;33.27
47080;BME280;33067;49.296;14.470;2023-09-07T09:07:41;97628.76;;;25.20;32.68
47080;BME280;33067;49.296;14.470;2023-09-07T09:10:08;97633.25;;;25.49;32.03
47080;BME280;33067;49.296;14.470;2023-09-07T09:12:34;97635.33;;;25.44;31.06
47080;BME280;33067;49.296;14.470;2023-09-07T09:15:00;97635.80;;;25.66;31.13
47080;BME280;33067;49.296;14.470;2023-09-07T09:17:25;97635.61;;;25.90;30.96
47080;BME280;33067;49.296;14.470;2023-09-07T09:19:50;97625.79;;;25.91;30.47
47080;BME280;33067;49.296;14.470;2023-09-07T09:22:15;97637.57;;;26.25;29.70
47080;BME280;33067;49.296;14.470;2023-09-07T09:24:41;97635.54;;;25.67;30.33
47080;BME280;33067;49.296;14.470;2023-09-07T09:27:07;97630.34;;;25.58;30.87
47080;BME280;33067;49.296;14.470;2023-09-07T09:29:33;97625.84;;;25.57;31.12
47080;BME280;33067;49.296;14.470;2023-09-07T09:32:00;97626.58;;;25.98;30.58
47080;BME280;33067;49.296;14.470;2023-09-07T09:34:25;97624.29;;;26.08;29.75
47080;BME280;33067;49.296;14.470;2023-09-07T09:36:50;97623.85;;;25.54;30.58
47080;BME280;33067;49.296;14.470;2023-09-07T09:39:22;97624.62;;;25.04;31.93
47080;BME280;33067;49.296;14.470;2023-09-07T09:41:41;97619.33;;;25.82;31.10
47080;BME280;33067;49.296;14.470;2023-09-07T09:44:08;97623.00;;;25.38;31.75
47080;BME280;33067;49.296;14.470;2023-09-07T09:46:33;97624.24;;;25.28;31.72
47080;BME280;33067;49.296;14.470;2023-09-07T09:48:59;97620.37;;;24.71;32.48
47080;BME280;33067;49.296;14.470;2023-09-07T09:51:25;97624.90;;;25.00;32.87
47080;BME280;33067;49.296;14.470;2023-09-07T09:53:50;97618.33;;;25.54;31.81
47080;BME280;33067;49.296;14.470;2023-09-07T09:56:20;97612.71;;;25.84;31.94
47080;BME280;33067;49.296;14.470;2023-09-07T09:58:41;97612.10;;;26.28;31.31
47080;BME280;33067;49.296;14.470;2023-09-07T10:01:07;97613.81;;;25.93;31.18
47080;BME280;33067;49.296;14.470;2023-09-07T10:03:33;97618.94;;;25.66;30.74
47080;BME280;33067;49.296;14.470;2023-09-07T10:06:08;97612.25;;;25.98;30.73
47080;BME280;33067;49.296;14.470;2023-09-07T10:08:23;97607.84;;;26.05;30.76
47080;BME280;33067;49.296;14.470;2023-09-07T10:10:52;97608.70;;;26.23;30.42
47080;BME280;33067;49.296;14.470;2023-09-07T10:13:16;97606.01;;;26.22;30.87
47080;BME280;33067;49.296;14.470;2023-09-07T10:15:40;97605.46;;;25.95;30.38
47080;BME280;33067;49.296;14.470;2023-09-07T10:18:08;97607.60;;;26.12;30.66
47080;BME280;33067;49.296;14.470;2023-09-07T10:20:48;97610.35;;;26.38;30.06
47080;BME280;33067;49.296;14.470;2023-09-07T10:23:03;97607.91;;;26.64;29.48
47080;BME280;33067;49.296;14.470;2023-09-07T10:25:23;97609.92;;;26.41;30.25
47080;BME280;33067;49.296;14.470;2023-09-07T10:27:49;97605.53;;;26.28;30.55
47080;BME280;33067;49.296;14.470;2023-09-07T10:30:14;97597.74;;;27.14;29.47
47080;BME280;33067;49.296;14.470;2023-09-07T10:32:40;97603.71;;;26.57;30.13
47080;BME280;33067;49.296;14.470;2023-09-07T10:35:12;97601.42;;;26.31;29.90
47080;BME280;33067;49.296;14.470;2023-09-07T10:37:32;97599.49;;;25.99;29.62
47080;BME280;33067;49.296;14.470;2023-09-07T10:39:57;97600.18;;;26.24;29.19
47080;BME280;33067;49.296;14.470;2023-09-07T10:44:48;97591.91;;;26.58;29.18
47080;BME280;33067;49.296;14.470;2023-09-07T10:47:14;97590.98;;;26.08;29.61
47080;BME280;33067;49.296;14.470;2023-09-07T10:49:39;97599.94;;;25.92;29.32
47080;BME280;33067;49.296;14.470;2023-09-07T10:52:05;97589.47;;;26.84;29.29
47080;BME280;33067;49.296;14.470;2023-09-07T10:54:31;97587.92;;;26.97;29.22
47080;BME280;33067;49.296;14.470;2023-09-07T10:56:57;97590.21;;;26.32;29.22
47080;BME280;33067;49.296;14.470;2023-09-07T10:59:22;97592.77;;;26.44;29.29
47080;BME280;33067;49.296;14.470;2023-09-07T11:01:48;97585.07;;;27.06;28.25
47080;BME280;33067;49.296;14.470;2023-09-07T11:04:13;97576.45;;;27.62;27.65
47080;BME280;33067;49.296;14.470;2023-09-07T11:06:40;97579.99;;;26.95;28.55
47080;BME280;33067;49.296;14.470;2023-09-07T11:09:04;97593.25;;;25.79;29.03
47080;BME280;33067;49.296;14.470;2023-09-07T11:11:31;97593.93;;;26.45;29.32
47080;BME280;33067;49.296;14.470;2023-09-07T11:13:57;97584.05;;;26.93;28.70
47080;BME280;33067;49.296;14.470;2023-09-07T11:16:25;97572.50;;;27.65;27.79
47080;BME280;33067;49.296;14.470;2023-09-07T11:18:47;97594.15;;;27.08;28.35
47080;BME280;33067;49.296;14.470;2023-09-07T11:21:15;97578.13;;;27.26;27.57
47080;BME280;33067;49.296;14.470;2023-09-07T11:26:05;97573.68;;;28.07;27.52
47080;BME280;33067;49.296;14.470;2023-09-07T11:28:33;97573.69;;;27.97;27.70
47080;BME280;33067;49.296;14.470;2023-09-07T11:30:56;97577.85;;;27.35;27.52
47080;BME280;33067;49.296;14.470;2023-09-07T11:33:22;97575.25;;;27.71;27.67
47080;BME280;33067;49.296;14.470;2023-09-07T11:35:48;97570.95;;;27.79;27.98
47080;BME280;33067;49.296;14.470;2023-09-07T11:38:14;97578.71;;;27.02;28.01
47080;BME280;33067;49.296;14.470;2023-09-07T11:40:39;97579.83;;;26.24;29.08
47080;BME280;33067;49.296;14.470;2023-09-07T11:43:04;97575.13;;;26.33;29.09
47080;BME280;33067;49.296;14.470;2023-09-07T11:45:38;97573.28;;;26.64;29.01
47080;BME280;33067;49.296;14.470;2023-09-07T11:48:42;97577.10;;;26.05;29.61
47080;BME280;33067;49.296;14.470;2023-09-07T11:50:28;97565.89;;;27.23;28.41
47080;BME280;33067;49.296;14.470;2023-09-07T11:52:47;97571.31;;;27.25;27.98
47080;BME280;33067;49.296;14.470;2023-09-07T11:55:15;97562.04;;;27.75;27.68
47080;BME280;33067;49.296;14.470;2023-09-07T11:57:38;97559.87;;;27.49;27.42
47080;BME280;33067;49.296;14.470;2023-09-07T12:00:05;97576.83;;;26.46;28.45
47080;BME280;33067;49.296;14.470;2023-09-07T12:02:29;97572.23;;;26.90;28.93
47080;BME280;33067;49.296;14.470;2023-09-07T12:04:55;97565.74;;;26.72;28.50
47080;BME280;33067;49.296;14.470;2023-09-07T12:07:31;97557.90;;;26.28;28.74
47080;BME280;33067;49.296;14.470;2023-09-07T12:09:47;97560.30;;;26.38;28.34
47080;BME280;33067;49.296;14.470;2023-09-07T12:12:13;97561.78;;;26.47;28.12
47080;BME280;33067;49.296;14.470;2023-09-07T12:14:38;97560.67;;;26.41;28.66
47080;BME280;33067;49.296;14.470;2023-09-07T12:17:04;97562.75;;;26.28;27.94
47080;BME280;33067;49.296;14.470;2023-09-07T12:19:29;97557.38;;;26.28;28.81
47080;BME280;33067;49.296;14.470;2023-09-07T12:21:55;97556.39;;;26.67;28.20
47080;BME280;33067;49.296;14.470;2023-09-07T12:24:21;97548.49;;;26.46;28.40
47080;BME280;33067;49.296;14.470;2023-09-07T12:26:46;97552.61;;;26.56;28.16
47080;BME280;33067;49.296;14.470;2023-09-07T12:29:13;97547.19;;;26.54;28.91
47080;BME280;33067;49.296;14.470;2023-09-07T12:34:03;97543.38;;;27.22;27.57
47080;BME280;33067;49.296;14.470;2023-09-07T12:38:55;97541.59;;;27.03;27.36
47080;BME280;33067;49.296;14.470;2023-09-07T12:43:45;97542.44;;;26.94;27.51
47080;BME280;33067;49.296;14.470;2023-09-07T12:46:20;97529.09;;;27.28;27.16
47080;BME280;33067;49.296;14.470;2023-09-07T12:48:37;97525.65;;;27.80;26.90
47080;BME280;33067;49.296;14.470;2023-09-07T12:51:02;97526.78;;;27.80;26.84
47080;BME280;33067;49.296;14.470;2023-09-07T12:55:54;97518.69;;;27.48;27.27
47080;BME280;33067;49.296;14.470;2023-09-07T12:58:19;97519.63;;;27.67;27.33
47080;BME280;33067;49.296;14.470;2023-09-07T13:00:45;97533.14;;;26.67;27.88